createdAt,value
2022-12-03T00:00:12.108Z,17.83
2022-12-03T00:03:15.183Z,19.70
2022-12-03T00:06:17.984Z,17.77
2022-12-03T00:09:19.980Z,17.85
2022-12-03T00:12:21.977Z,18.30
2022-12-03T00:15:23.980Z,19.10
2022-12-03T00:18:26.028Z,17.63
2022-12-03T00:21:28.060Z,18.52
2022-12-03T00:24:30.070Z,17.43
2022-12-03T00:27:32.084Z,17.88
2022-12-03T00:30:34.752Z,17.48
2022-12-03T00:33:36.724Z,17.00
2022-12-03T00:36:38.703Z,16.77
2022-12-03T00:39:40.696Z,18.33
2022-12-03T00:42:42.719Z,17.92
2022-12-03T00:45:44.672Z,16.10
2022-12-03T00:48:46.618Z,15.38
2022-12-03T00:51:48.704Z,15.98
2022-12-03T00:54:50.912Z,15.27
2022-12-03T00:57:53.120Z,19.05
2022-12-03T01:00:55.151Z,17.67
2022-12-03T01:03:57.183Z,16.90
2022-12-03T01:06:59.403Z,16.80
2022-12-03T01:10:01.435Z,16.08
2022-12-03T01:13:03.428Z,16.48
2022-12-03T01:16:05.466Z,16.75
2022-12-03T01:19:08.704Z,16.65
2022-12-03T01:22:10.746Z,15.57
2022-12-03T01:25:12.775Z,16.27
2022-12-03T01:28:14.818Z,14.57
2022-12-03T01:31:35.193Z,15.50
2022-12-03T01:34:37.321Z,16.50
2022-12-03T01:37:39.355Z,15.93
2022-12-03T01:40:41.450Z,15.60
2022-12-03T01:43:43.614Z,16.75
2022-12-03T01:46:46.371Z,16.67
2022-12-03T01:49:54.068Z,18.17
2022-12-03T01:52:58.083Z,16.40
2022-12-03T01:56:00.070Z,16.40
2022-12-03T01:59:02.165Z,17.30
2022-12-03T02:02:14.468Z,16.58
2022-12-03T02:05:18.540Z,16.47
2022-12-03T02:08:46.655Z,16.70
2022-12-03T02:11:49.659Z,15.85
2022-12-03T02:14:52.528Z,16.05
2022-12-03T02:17:55.522Z,17.00
2022-12-03T02:21:00.583Z,16.05
2022-12-03T02:24:17.557Z,16.08
2022-12-03T02:27:19.574Z,14.70
2022-12-03T02:30:23.899Z,16.73
2022-12-03T02:33:25.932Z,16.38
2022-12-03T02:36:27.976Z,15.27
2022-12-03T02:39:30.070Z,15.52
2022-12-03T02:42:38.040Z,16.70
2022-12-03T02:45:41.615Z,18.20
2022-12-03T02:48:43.585Z,15.48
2022-12-03T02:51:45.608Z,16.45
2022-12-03T02:54:48.111Z,17.67
2022-12-03T02:57:50.355Z,16.37
2022-12-03T03:00:54.100Z,16.08
2022-12-03T03:03:56.578Z,15.55
2022-12-03T03:06:58.794Z,17.40
2022-12-03T03:10:01.083Z,16.42
2022-12-03T03:13:04.236Z,16.30
2022-12-03T03:16:07.267Z,17.55
2022-12-03T03:19:12.199Z,17.17
2022-12-03T03:22:14.189Z,17.63
2022-12-03T03:25:18.224Z,16.35
2022-12-03T03:28:20.384Z,16.10
2022-12-03T03:31:23.790Z,17.48
2022-12-03T03:34:26.892Z,16.85
2022-12-03T03:37:29.203Z,16.80
2022-12-03T03:40:31.327Z,15.63
2022-12-03T03:43:34.978Z,18.00
2022-12-03T03:46:37.469Z,17.98
2022-12-03T03:49:39.721Z,20.45
2022-12-03T03:52:42.252Z,19.17
2022-12-03T03:55:44.428Z,19.10
2022-12-03T03:58:46.438Z,18.37
2022-12-03T04:01:48.813Z,20.27
2022-12-03T04:04:51.934Z,17.15
2022-12-03T04:07:54.309Z,19.13
2022-12-03T04:11:14.873Z,18.35
2022-12-03T04:14:16.849Z,19.48
2022-12-03T04:17:19.439Z,18.55
2022-12-03T04:20:21.457Z,19.73
2022-12-03T04:23:29.244Z,20.50
2022-12-03T04:26:51.167Z,20.73
2022-12-03T04:29:53.470Z,18.20
2022-12-03T04:33:15.775Z,21.08
2022-12-03T04:36:17.735Z,19.38
2022-12-03T04:39:19.800Z,19.90
2022-12-03T04:42:22.028Z,19.70
2022-12-03T04:45:24.045Z,19.33
2022-12-03T04:48:26.085Z,19.55
2022-12-03T04:51:28.111Z,19.05
2022-12-03T04:54:30.345Z,18.73
2022-12-03T04:57:32.879Z,18.95
2022-12-03T05:00:34.952Z,17.37
2022-12-03T05:03:37.011Z,20.20
2022-12-03T05:06:39.047Z,18.42
2022-12-03T05:09:41.627Z,20.73
2022-12-03T05:12:43.616Z,19.73
2022-12-03T05:15:45.637Z,21.33
2022-12-03T05:18:47.624Z,20.58
2022-12-03T05:21:49.610Z,22.27
2022-12-03T05:24:51.860Z,19.77
2022-12-03T05:27:54.161Z,20.75
2022-12-03T05:30:56.249Z,19.23
2022-12-03T05:33:58.341Z,20.05
2022-12-03T05:37:00.345Z,21.40
2022-12-03T05:40:02.341Z,19.33
2022-12-03T05:43:04.395Z,18.92
2022-12-03T05:46:06.499Z,22.05
2022-12-03T05:49:08.614Z,18.60
2022-12-03T05:52:10.686Z,20.20
2022-12-03T05:55:12.980Z,21.75
2022-12-03T05:58:14.964Z,21.48
2022-12-03T06:01:16.994Z,20.47
2022-12-03T06:04:18.953Z,21.00
2022-12-03T06:07:21.040Z,22.10
2022-12-03T06:10:24.532Z,20.33
2022-12-03T06:13:26.514Z,21.83
2022-12-03T06:16:28.586Z,20.60
2022-12-03T06:19:31.415Z,21.88
2022-12-03T06:22:33.528Z,21.60
2022-12-03T06:25:35.559Z,23.00
2022-12-03T06:28:52.702Z,19.70
2022-12-03T06:31:54.771Z,20.73
2022-12-03T06:34:56.850Z,23.83
2022-12-03T06:37:59.012Z,20.63
2022-12-03T06:41:01.021Z,22.63
2022-12-03T06:44:02.992Z,21.58
2022-12-03T06:47:05.039Z,25.10
2022-12-03T06:50:07.696Z,22.15
2022-12-03T06:53:09.705Z,24.70
2022-12-03T06:56:11.692Z,24.42
2022-12-03T06:59:13.866Z,24.33
2022-12-03T07:02:15.880Z,21.73
2022-12-03T07:05:17.945Z,23.23
2022-12-03T07:08:19.998Z,21.27
2022-12-03T07:11:39.991Z,22.40
2022-12-03T07:14:42.130Z,22.80
2022-12-03T07:17:44.187Z,25.85
2022-12-03T07:20:46.187Z,22.67
2022-12-03T07:23:48.296Z,21.77
2022-12-03T07:26:50.301Z,24.98
2022-12-03T07:29:52.308Z,20.55
2022-12-03T07:32:54.617Z,21.33
2022-12-03T07:35:56.602Z,23.08
2022-12-03T07:38:59.994Z,21.77
2022-12-03T07:42:02.224Z,22.90
2022-12-03T07:45:04.748Z,22.38
2022-12-03T07:48:06.792Z,22.45
2022-12-03T07:51:14.233Z,23.92
2022-12-03T07:54:17.281Z,22.33
2022-12-03T07:57:19.237Z,20.90
2022-12-03T08:00:21.425Z,21.13
2022-12-03T08:03:23.445Z,23.07
2022-12-03T08:06:26.170Z,25.08
2022-12-03T08:09:28.173Z,22.08
2022-12-03T08:12:42.280Z,23.00
2022-12-03T08:15:44.821Z,23.45
2022-12-03T08:18:47.462Z,21.33
2022-12-03T08:21:49.601Z,23.98
2022-12-03T08:24:51.904Z,22.38
2022-12-03T08:27:55.787Z,22.23
2022-12-03T08:31:13.139Z,23.83
2022-12-03T08:34:15.175Z,22.17
2022-12-03T08:37:18.425Z,20.38
2022-12-03T08:40:23.092Z,22.13
2022-12-03T08:43:26.288Z,24.43
2022-12-03T08:46:28.348Z,23.40
2022-12-03T08:49:30.373Z,22.67
2022-12-03T08:52:33.308Z,23.25
2022-12-03T08:55:36.910Z,24.67
2022-12-03T08:58:40.664Z,23.05
2022-12-03T09:01:43.907Z,22.00
2022-12-03T09:04:46.257Z,25.60
2022-12-03T09:07:48.346Z,22.08
2022-12-03T09:10:50.474Z,23.67
2022-12-03T09:13:53.007Z,23.45
2022-12-03T09:16:56.158Z,23.43
2022-12-03T09:19:58.344Z,25.38
2022-12-03T09:23:00.482Z,24.25
2022-12-03T09:26:02.501Z,24.25
2022-12-03T09:29:10.432Z,24.80
2022-12-03T09:32:18.278Z,22.20
2022-12-03T09:35:21.044Z,22.42
2022-12-03T09:38:23.080Z,25.05
2022-12-03T09:41:25.498Z,25.20
2022-12-03T09:44:32.519Z,23.58
2022-12-03T09:47:34.563Z,22.33
2022-12-03T09:50:38.300Z,21.15
2022-12-03T09:53:41.458Z,23.43
2022-12-03T09:56:43.605Z,22.70
2022-12-03T09:59:45.804Z,22.55
2022-12-03T10:02:48.746Z,21.15
2022-12-03T10:05:51.134Z,23.47
2022-12-03T10:08:54.608Z,22.03
2022-12-03T10:11:57.407Z,22.38
2022-12-03T10:14:59.466Z,21.33
2022-12-03T10:18:09.472Z,22.13
2022-12-03T10:21:18.156Z,23.07
2022-12-03T10:24:21.904Z,22.58
2022-12-03T10:27:30.687Z,21.63
2022-12-03T10:30:32.937Z,24.67
2022-12-03T10:33:45.456Z,22.80
2022-12-03T10:36:47.473Z,22.23
2022-12-03T10:39:56.249Z,22.52
2022-12-03T10:43:17.308Z,21.15
2022-12-03T10:46:23.164Z,19.13
2022-12-03T10:49:25.292Z,21.53
2022-12-03T10:52:27.359Z,22.70
2022-12-03T10:55:32.968Z,21.42
2022-12-03T10:58:36.370Z,21.00
2022-12-03T11:01:38.465Z,20.50
2022-12-03T11:04:41.539Z,21.53
2022-12-03T11:07:44.417Z,21.10
2022-12-03T11:10:55.957Z,19.98
2022-12-03T11:14:02.073Z,21.10
2022-12-03T11:17:07.825Z,19.95
2022-12-03T11:20:24.844Z,20.30
2022-12-03T11:23:45.036Z,23.50
2022-12-03T11:27:06.958Z,21.95
2022-12-03T11:30:10.559Z,20.90
2022-12-03T11:33:22.170Z,20.48
2022-12-03T11:36:47.631Z,18.53
2022-12-03T11:39:51.498Z,19.35
2022-12-03T11:42:53.625Z,20.90
2022-12-03T11:45:59.697Z,20.95
2022-12-03T11:49:22.044Z,21.38
2022-12-03T11:52:26.018Z,19.53
2022-12-03T11:55:33.152Z,19.50
2022-12-03T11:58:35.922Z,19.80
2022-12-03T12:01:39.359Z,20.60
2022-12-03T12:04:46.587Z,20.48
2022-12-03T12:07:48.959Z,19.13
2022-12-03T12:10:50.962Z,20.25
2022-12-03T12:13:54.714Z,20.58
2022-12-03T12:16:58.512Z,21.02
2022-12-03T12:20:19.077Z,18.33
2022-12-03T12:23:23.298Z,19.03
2022-12-03T12:26:25.297Z,17.30
2022-12-03T12:29:27.469Z,19.77
2022-12-03T12:32:30.937Z,22.55
2022-12-03T12:35:33.055Z,20.63
2022-12-03T12:38:35.103Z,18.63
2022-12-03T12:41:37.132Z,20.05
2022-12-03T12:44:39.112Z,20.90
2022-12-03T12:47:47.706Z,21.30
2022-12-03T12:51:00.597Z,20.63
2022-12-03T12:54:02.608Z,21.08
2022-12-03T12:57:10.583Z,20.05
2022-12-03T13:00:22.876Z,21.75
2022-12-03T13:03:29.604Z,19.30
2022-12-03T13:06:32.031Z,22.52
2022-12-03T13:09:34.067Z,21.77
2022-12-03T13:12:36.477Z,22.10
2022-12-03T13:15:58.703Z,22.10
2022-12-03T13:19:01.453Z,22.50
2022-12-03T13:22:12.920Z,21.90
2022-12-03T13:25:59.272Z,22.13
2022-12-03T13:28:58.617Z,20.30
2022-12-03T13:32:05.406Z,21.25
2022-12-03T13:35:12.996Z,22.23
2022-12-03T13:38:16.295Z,22.50
2022-12-03T13:41:39.688Z,22.67
2022-12-03T13:44:44.451Z,23.35
2022-12-03T13:47:47.625Z,20.98
2022-12-03T13:50:50.240Z,22.63
2022-12-03T13:53:52.570Z,29.95
2022-12-03T13:56:54.575Z,26.75
2022-12-03T13:59:57.021Z,26.70
2022-12-03T14:02:59.177Z,26.20
2022-12-03T14:06:01.184Z,27.80
2022-12-03T14:09:03.746Z,24.92
2022-12-03T14:12:24.556Z,25.13
2022-12-03T14:15:26.700Z,26.52
2022-12-03T14:18:28.732Z,26.05
2022-12-03T14:21:30.854Z,28.73
2022-12-03T14:24:32.855Z,25.67
2022-12-03T14:27:34.894Z,28.58
2022-12-03T14:30:36.867Z,29.70
2022-12-03T14:33:38.873Z,29.88
2022-12-03T14:36:40.972Z,33.05
2022-12-03T14:39:43.156Z,29.30
2022-12-03T14:42:45.277Z,27.17
2022-12-03T14:45:47.327Z,27.95
2022-12-03T14:48:49.336Z,27.10
2022-12-03T14:51:51.454Z,29.30
2022-12-03T14:54:53.524Z,31.48
2022-12-03T14:57:55.516Z,30.70
2022-12-03T15:00:57.580Z,28.42
2022-12-03T15:03:59.581Z,30.40
2022-12-03T15:07:01.594Z,30.67
2022-12-03T15:10:03.700Z,30.92
2022-12-03T15:13:05.709Z,31.53
2022-12-03T15:16:08.629Z,34.70
2022-12-03T15:19:10.641Z,31.58
2022-12-03T15:22:12.664Z,33.73
2022-12-03T15:25:14.725Z,32.75
2022-12-03T15:28:16.865Z,37.30
2022-12-03T15:31:18.900Z,40.30
2022-12-03T15:34:23.149Z,42.75
2022-12-03T15:37:27.713Z,45.55
2022-12-03T15:40:29.660Z,46.55
2022-12-03T15:43:31.642Z,42.20
2022-12-03T15:46:33.684Z,44.50
2022-12-03T15:49:35.807Z,42.90
2022-12-03T15:52:37.828Z,33.40
2022-12-03T15:55:39.879Z,35.03
2022-12-03T15:58:41.946Z,38.13
2022-12-03T16:01:43.979Z,35.78
2022-12-03T16:04:45.992Z,27.55
2022-12-03T16:07:48.057Z,30.08
2022-12-03T16:10:50.213Z,29.55
2022-12-03T16:13:52.216Z,30.03
2022-12-03T16:16:55.141Z,34.53
2022-12-03T16:19:57.243Z,34.60
2022-12-03T16:22:59.338Z,33.13
2022-12-03T16:26:01.337Z,32.53
2022-12-03T16:29:03.406Z,32.17
2022-12-03T16:32:05.540Z,35.17
2022-12-03T16:35:07.707Z,34.25
2022-12-03T16:38:09.710Z,37.58
2022-12-03T16:41:11.673Z,41.03
2022-12-03T16:44:30.465Z,44.53
2022-12-03T16:47:34.405Z,46.95
2022-12-03T16:50:37.724Z,45.20
2022-12-03T16:53:39.755Z,52.13
2022-12-03T16:56:41.781Z,56.33
2022-12-03T16:59:43.732Z,52.80
2022-12-03T17:02:45.755Z,42.40
2022-12-03T17:05:47.796Z,39.33
2022-12-03T17:08:50.213Z,37.80
2022-12-03T17:11:52.335Z,33.67
2022-12-03T17:14:54.276Z,36.27
2022-12-03T17:17:56.292Z,37.50
2022-12-03T17:20:58.368Z,36.63
2022-12-03T17:24:00.371Z,36.53
2022-12-03T17:27:02.408Z,34.42
2022-12-03T17:30:05.126Z,36.47
2022-12-03T17:33:07.209Z,41.28
2022-12-03T17:36:09.870Z,44.15
2022-12-03T17:39:11.893Z,44.63
2022-12-03T17:42:13.961Z,42.88
2022-12-03T17:45:16.023Z,61.50
2022-12-03T17:48:18.051Z,61.28
2022-12-03T17:51:21.187Z,40.22
2022-12-03T17:54:23.218Z,37.10
2022-12-03T17:57:25.238Z,35.88
2022-12-03T18:00:27.310Z,36.83
2022-12-03T18:03:29.352Z,37.78
2022-12-03T18:06:31.660Z,37.50
2022-12-03T18:09:33.709Z,40.88
2022-12-03T18:12:35.799Z,39.45
2022-12-03T18:15:37.794Z,40.27
2022-12-03T18:18:39.873Z,41.88
2022-12-03T18:21:41.965Z,40.30
2022-12-03T18:24:46.077Z,42.17
2022-12-03T18:27:50.500Z,52.10
2022-12-03T18:30:53.075Z,54.05
2022-12-03T18:33:55.185Z,49.08
2022-12-03T18:36:57.227Z,42.53
2022-12-03T18:39:59.693Z,40.03
2022-12-03T18:43:01.837Z,39.55
2022-12-03T18:46:07.737Z,41.13
2022-12-03T18:49:14.460Z,44.75
2022-12-03T18:52:18.015Z,44.95
2022-12-03T18:55:20.268Z,43.20
2022-12-03T18:58:22.234Z,39.35
2022-12-03T19:01:24.318Z,36.22
2022-12-03T19:04:26.451Z,39.47
2022-12-03T19:07:28.480Z,38.13
2022-12-03T19:10:30.539Z,39.00
2022-12-03T19:13:32.591Z,35.17
2022-12-03T19:16:35.553Z,34.53
2022-12-03T19:19:37.586Z,33.55
2022-12-03T19:22:39.611Z,34.35
2022-12-03T19:25:41.647Z,35.83
2022-12-03T19:28:43.737Z,34.28
2022-12-03T19:31:45.850Z,32.97
2022-12-03T19:34:48.015Z,33.83
2022-12-03T19:37:50.372Z,32.90
2022-12-03T19:41:18.669Z,33.88
2022-12-03T19:44:20.631Z,31.38
2022-12-03T19:47:24.810Z,33.60
2022-12-03T19:50:26.829Z,32.25
2022-12-03T19:53:29.769Z,33.30
2022-12-03T19:56:31.792Z,34.10
2022-12-03T19:59:33.741Z,31.08
2022-12-03T20:02:35.762Z,32.20
2022-12-03T20:05:38.728Z,32.65
2022-12-03T20:08:40.760Z,28.13
2022-12-03T20:11:44.580Z,30.92
2022-12-03T20:14:46.688Z,32.75
2022-12-03T20:17:48.772Z,29.63
2022-12-03T20:20:50.744Z,28.83
2022-12-03T20:23:53.164Z,30.33
2022-12-03T20:26:55.164Z,32.17
2022-12-03T20:29:57.379Z,33.85
2022-12-03T20:32:59.537Z,33.75
2022-12-03T20:36:01.564Z,35.33
2022-12-03T20:39:05.221Z,32.38
2022-12-03T20:42:08.800Z,32.92
2022-12-03T20:45:10.877Z,31.73
2022-12-03T20:48:12.931Z,30.37
2022-12-03T20:51:16.400Z,30.23
2022-12-03T20:54:18.527Z,30.05
2022-12-03T20:57:20.532Z,33.50
2022-12-03T21:00:22.505Z,29.67
2022-12-03T21:03:24.569Z,32.67
2022-12-03T21:06:28.048Z,32.33
2022-12-03T21:09:30.051Z,31.25
2022-12-03T21:12:32.080Z,32.90
2022-12-03T21:15:34.105Z,32.78
2022-12-03T21:18:36.104Z,32.00
2022-12-03T21:21:38.129Z,34.50
2022-12-03T21:24:42.823Z,34.00
2022-12-03T21:27:44.770Z,34.40
2022-12-03T21:30:46.806Z,32.35
2022-12-03T21:33:48.884Z,33.42
2022-12-03T21:36:50.972Z,32.28
2022-12-03T21:39:53.966Z,32.60
2022-12-03T21:42:56.148Z,32.20
2022-12-03T21:45:58.174Z,32.13
2022-12-03T21:49:00.289Z,31.53
2022-12-03T21:52:02.257Z,31.67
2022-12-03T21:55:04.366Z,31.27
2022-12-03T21:58:07.065Z,34.30
2022-12-03T22:01:12.988Z,32.63
2022-12-03T22:04:15.096Z,34.90
2022-12-03T22:07:17.303Z,31.77
2022-12-03T22:10:19.379Z,32.58
2022-12-03T22:13:21.338Z,31.63
2022-12-03T22:16:23.415Z,33.20
2022-12-03T22:19:25.963Z,33.30
2022-12-03T22:22:27.975Z,34.53
2022-12-03T22:25:30.714Z,30.85
2022-12-03T22:28:33.229Z,32.13
2022-12-03T22:31:35.284Z,32.13
2022-12-03T22:34:38.097Z,31.88
2022-12-03T22:37:40.126Z,33.75
2022-12-03T22:40:42.131Z,31.65
2022-12-03T22:43:44.970Z,28.98
2022-12-03T22:46:47.020Z,30.35
2022-12-03T22:49:49.088Z,31.47
2022-12-03T22:52:51.129Z,29.20
2022-12-03T22:55:56.807Z,30.63
2022-12-03T22:58:58.786Z,31.00
2022-12-03T23:02:00.871Z,30.45
2022-12-03T23:05:02.914Z,31.52
2022-12-03T23:08:09.221Z,33.95
2022-12-03T23:11:11.265Z,34.72
2022-12-03T23:14:13.296Z,33.72
2022-12-03T23:17:15.263Z,30.90
2022-12-03T23:20:17.317Z,33.83
2022-12-03T23:23:20.685Z,36.78
2022-12-03T23:26:22.755Z,33.17
2022-12-03T23:29:24.713Z,33.33
2022-12-03T23:32:26.774Z,34.40
2022-12-03T23:35:28.807Z,33.05
2022-12-03T23:38:30.788Z,31.65
2022-12-03T23:41:32.741Z,35.10
2022-12-03T23:44:34.783Z,35.47
2022-12-03T23:47:36.792Z,31.23
2022-12-03T23:50:39.741Z,33.23
2022-12-03T23:53:41.713Z,37.10
2022-12-03T23:56:43.764Z,34.72
2022-12-03T23:59:45.828Z,32.83
